createdAt,value
2018-07-09T00:00:37.456Z,3.47
2018-07-09T00:03:08.870Z,4.63
2018-07-09T00:05:39.076Z,4.00
2018-07-09T00:08:07.664Z,4.43
2018-07-09T00:10:46.840Z,4.30
2018-07-09T00:13:14.652Z,4.60
2018-07-09T00:15:42.529Z,4.17
2018-07-09T00:18:10.226Z,4.10
2018-07-09T00:20:38.736Z,4.10
2018-07-09T00:23:06.417Z,4.40
2018-07-09T00:25:34.181Z,4.60
2018-07-09T00:28:01.869Z,4.93
2018-07-09T00:30:29.787Z,4.80
2018-07-09T00:32:57.500Z,4.10
2018-07-09T00:35:25.652Z,4.97
2018-07-09T00:37:53.434Z,5.10
2018-07-09T00:40:21.241Z,4.17
2018-07-09T00:42:49.924Z,5.33
2018-07-09T00:45:17.641Z,4.63
2018-07-09T00:47:45.479Z,4.50
2018-07-09T00:50:13.204Z,4.27
2018-07-09T00:52:41.134Z,4.53
2018-07-09T00:55:08.748Z,4.40
2018-07-09T00:57:36.357Z,4.33
2018-07-09T01:00:04.505Z,4.47
2018-07-09T01:02:32.242Z,4.00
2018-07-09T01:04:59.929Z,5.17
2018-07-09T01:07:27.674Z,5.97
2018-07-09T01:09:55.464Z,4.17
2018-07-09T01:12:23.136Z,4.70
2018-07-09T01:14:50.871Z,4.67
2018-07-09T01:17:18.554Z,4.40
2018-07-09T01:19:46.316Z,4.10
2018-07-09T01:22:13.977Z,4.03
2018-07-09T01:24:42.000Z,4.60
2018-07-09T01:27:09.782Z,4.57
2018-07-09T01:29:37.449Z,4.10
2018-07-09T01:32:05.111Z,4.07
2018-07-09T01:34:32.800Z,3.70
2018-07-09T01:37:00.529Z,5.07
2018-07-09T01:39:28.504Z,4.10
2018-07-09T01:41:56.197Z,4.93
2018-07-09T01:44:23.938Z,4.03
2018-07-09T01:46:51.737Z,4.30
2018-07-09T01:49:19.409Z,4.70
2018-07-09T01:51:47.143Z,4.67
2018-07-09T01:54:14.904Z,4.60
2018-07-09T01:56:42.646Z,4.80
2018-07-09T01:59:10.383Z,5.50
2018-07-09T02:01:38.264Z,5.17
2018-07-09T02:04:06.041Z,4.90
2018-07-09T02:06:33.763Z,4.20
2018-07-09T02:09:01.557Z,4.67
2018-07-09T02:11:29.308Z,4.50
2018-07-09T02:13:56.976Z,5.37
2018-07-09T02:16:24.820Z,5.20
2018-07-09T02:18:52.501Z,5.43
2018-07-09T02:21:20.292Z,5.73
2018-07-09T02:23:47.960Z,5.30
2018-07-09T02:26:15.771Z,5.23
2018-07-09T02:28:43.471Z,5.80
2018-07-09T02:31:11.273Z,5.07
2018-07-09T02:33:39.000Z,5.10
2018-07-09T02:36:06.733Z,4.97
2018-07-09T02:38:34.408Z,5.50
2018-07-09T02:41:02.153Z,4.60
2018-07-09T02:43:29.869Z,4.80
2018-07-09T02:45:57.547Z,4.87
2018-07-09T02:48:25.249Z,5.30
2018-07-09T02:50:52.880Z,4.70
2018-07-09T02:53:20.580Z,4.97
2018-07-09T02:55:48.245Z,4.43
2018-07-09T02:58:15.994Z,4.90
2018-07-09T03:00:43.786Z,4.77
2018-07-09T03:03:11.460Z,4.90
2018-07-09T03:05:39.135Z,4.73
2018-07-09T03:08:06.885Z,5.07
2018-07-09T03:10:34.616Z,4.80
2018-07-09T03:13:02.465Z,4.40
2018-07-09T03:15:30.188Z,4.70
2018-07-09T03:17:57.865Z,4.90
2018-07-09T03:20:25.625Z,4.87
2018-07-09T03:22:53.368Z,4.70
2018-07-09T03:25:21.045Z,4.20
2018-07-09T03:27:48.752Z,4.47
2018-07-09T03:30:16.400Z,4.67
2018-07-09T03:32:44.110Z,4.80
2018-07-09T03:35:11.891Z,4.73
2018-07-09T03:37:39.619Z,4.50
2018-07-09T03:40:07.482Z,4.40
2018-07-09T03:42:35.238Z,4.53
2018-07-09T03:45:02.976Z,4.80
2018-07-09T03:47:30.612Z,4.37
2018-07-09T03:49:58.387Z,4.40
2018-07-09T03:52:26.080Z,4.83
2018-07-09T03:54:53.785Z,4.93
2018-07-09T03:57:21.452Z,5.30
2018-07-09T03:59:49.322Z,4.80
2018-07-09T04:02:17.091Z,5.00
2018-07-09T04:04:44.757Z,4.80
2018-07-09T04:07:12.571Z,5.10
2018-07-09T04:09:40.312Z,5.40
2018-07-09T04:12:08.029Z,5.10
2018-07-09T04:14:35.759Z,5.00
2018-07-09T04:17:03.478Z,5.23
2018-07-09T04:19:31.187Z,4.70
2018-07-09T04:21:58.883Z,5.27
2018-07-09T04:24:26.817Z,5.60
2018-07-09T04:26:54.672Z,5.40
2018-07-09T04:29:22.395Z,4.93
2018-07-09T04:31:50.163Z,4.90
2018-07-09T04:34:17.749Z,5.60
2018-07-09T04:36:45.444Z,5.20
2018-07-09T04:39:13.281Z,5.40
2018-07-09T04:41:40.987Z,6.10
2018-07-09T04:44:08.728Z,4.60
2018-07-09T04:46:36.480Z,5.10
2018-07-09T04:49:04.196Z,5.10
2018-07-09T04:51:31.800Z,4.60
2018-07-09T04:54:00.084Z,5.23
2018-07-09T04:56:27.892Z,4.53
2018-07-09T04:58:55.740Z,5.93
2018-07-09T05:01:23.548Z,4.83
2018-07-09T05:03:51.260Z,5.40
2018-07-09T05:06:18.996Z,4.60
2018-07-09T05:08:46.693Z,4.73
2018-07-09T05:11:14.354Z,6.00
2018-07-09T05:13:42.203Z,5.10
2018-07-09T05:16:10.126Z,4.90
2018-07-09T05:18:37.900Z,5.57
2018-07-09T05:21:05.702Z,5.23
2018-07-09T05:23:33.487Z,5.23
2018-07-09T05:26:01.219Z,5.40
2018-07-09T05:28:28.969Z,5.30
2018-07-09T05:30:56.713Z,5.10
2018-07-09T05:33:24.435Z,6.00
2018-07-09T05:35:52.226Z,5.17
2018-07-09T05:38:25.991Z,5.40
2018-07-09T05:40:58.012Z,5.17
2018-07-09T05:43:28.577Z,5.33
2018-07-09T05:45:56.400Z,5.40
2018-07-09T05:48:24.184Z,5.20
2018-07-09T05:50:51.929Z,5.20
2018-07-09T05:53:19.708Z,5.23
2018-07-09T05:55:47.503Z,5.30
2018-07-09T05:58:15.172Z,4.90
2018-07-09T06:00:42.984Z,5.20
2018-07-09T06:03:10.677Z,5.40
2018-07-09T06:05:38.526Z,5.10
2018-07-09T06:08:06.217Z,5.60
2018-07-09T06:10:33.920Z,5.13
2018-07-09T06:13:01.675Z,4.97
2018-07-09T06:15:29.415Z,4.80
2018-07-09T06:17:57.285Z,4.60
2018-07-09T06:20:25.112Z,4.30
2018-07-09T06:22:52.869Z,3.70
2018-07-09T06:25:20.642Z,3.63
2018-07-09T06:27:48.572Z,4.97
2018-07-09T06:30:16.341Z,4.70
2018-07-09T06:32:44.108Z,4.30
2018-07-09T06:35:11.813Z,4.20
2018-07-09T06:37:39.503Z,3.87
2018-07-09T06:40:07.348Z,4.43
2018-07-09T06:42:35.065Z,4.53
2018-07-09T06:45:02.962Z,4.13
2018-07-09T06:47:33.839Z,4.30
2018-07-09T06:50:01.702Z,3.43
2018-07-09T06:52:29.341Z,3.30
2018-07-09T06:54:57.104Z,3.73
2018-07-09T06:57:24.785Z,3.37
2018-07-09T06:59:52.462Z,3.00
2018-07-09T07:02:20.319Z,3.33
2018-07-09T07:04:48.098Z,3.67
2018-07-09T07:07:15.797Z,4.60
2018-07-09T07:09:43.689Z,6.47
2018-07-09T07:12:11.407Z,3.57
2018-07-09T07:14:39.734Z,3.10
2018-07-09T07:17:07.395Z,4.10
2018-07-09T07:19:35.334Z,4.30
2018-07-09T07:22:03.091Z,4.20
2018-07-09T07:24:30.834Z,7.53
2018-07-09T07:26:58.540Z,4.03
2018-07-09T07:29:26.278Z,3.73
2018-07-09T07:31:54.044Z,7.97
2018-07-09T07:34:21.836Z,6.43
2018-07-09T07:36:49.545Z,3.87
2018-07-09T07:39:17.322Z,4.80
2018-07-09T07:41:44.965Z,4.30
2018-07-09T07:44:12.729Z,4.13
2018-07-09T07:46:40.432Z,4.40
2018-07-09T07:49:08.147Z,3.80
2018-07-09T07:51:35.834Z,4.07
2018-07-09T07:54:03.572Z,4.80
2018-07-09T07:56:31.306Z,4.33
2018-07-09T07:58:58.944Z,5.30
2018-07-09T08:01:26.732Z,5.40
2018-07-09T08:03:54.397Z,5.40
2018-07-09T08:06:22.319Z,4.80
2018-07-09T08:08:50.064Z,4.97
2018-07-09T08:11:17.916Z,4.67
2018-07-09T08:13:45.689Z,5.13
2018-07-09T08:16:13.423Z,6.10
2018-07-09T08:18:41.189Z,5.67
2018-07-09T08:21:08.784Z,5.63
2018-07-09T08:23:36.644Z,5.20
2018-07-09T08:26:04.625Z,5.90
2018-07-09T08:28:32.335Z,5.37
2018-07-09T08:31:00.287Z,5.30
2018-07-09T08:33:27.952Z,5.57
2018-07-09T08:35:55.646Z,5.10
2018-07-09T08:38:23.372Z,5.60
2018-07-09T08:40:51.229Z,5.80
2018-07-09T08:43:18.983Z,5.73
2018-07-09T08:48:39.901Z,6.07
2018-07-09T08:51:07.744Z,6.00
2018-07-09T08:53:41.498Z,5.53
2018-07-09T08:56:09.325Z,5.90
2018-07-09T08:58:37.044Z,5.40
2018-07-09T09:01:04.855Z,5.23
2018-07-09T09:03:32.614Z,5.77
2018-07-09T09:06:00.331Z,6.03
2018-07-09T09:08:28.188Z,5.57
2018-07-09T09:13:49.698Z,5.67
2018-07-09T09:16:17.360Z,5.70
2018-07-09T09:18:45.068Z,5.20
2018-07-09T09:21:12.825Z,4.93
2018-07-09T09:23:40.579Z,5.70
2018-07-09T09:26:08.390Z,5.23
2018-07-09T09:28:36.094Z,5.17
2018-07-09T09:31:26.641Z,5.13
2018-07-09T09:33:54.374Z,5.63
2018-07-09T09:36:22.255Z,4.90
2018-07-09T09:44:35.360Z,5.00
2018-07-09T09:47:03.099Z,4.47
2018-07-09T09:49:31.023Z,5.10
2018-07-09T09:51:59.708Z,5.37
2018-07-09T09:54:27.263Z,5.23
2018-07-09T09:56:55.145Z,4.83
2018-07-09T09:59:28.956Z,4.83
2018-07-09T10:01:56.748Z,5.30
2018-07-09T10:04:24.428Z,4.70
2018-07-09T10:06:52.257Z,4.93
2018-07-09T10:09:20.100Z,4.80
2018-07-09T10:11:48.076Z,4.40
2018-07-09T10:14:17.780Z,4.73
2018-07-09T10:16:45.539Z,4.47
2018-07-09T10:19:13.224Z,4.83
2018-07-09T10:21:40.984Z,4.67
2018-07-09T10:24:08.749Z,4.77
2018-07-09T10:26:36.528Z,4.63
2018-07-09T10:29:04.286Z,4.13
2018-07-09T10:31:32.013Z,4.43
2018-07-09T10:33:59.793Z,3.83
2018-07-09T10:36:27.518Z,4.30
2018-07-09T10:38:55.292Z,3.97
2018-07-09T10:41:22.989Z,4.73
2018-07-09T10:43:50.813Z,4.33
2018-07-09T10:46:18.528Z,4.63
2018-07-09T10:48:46.293Z,4.07
2018-07-09T10:51:13.996Z,4.23
2018-07-09T10:53:41.664Z,4.23
2018-07-09T10:56:09.408Z,3.77
2018-07-09T10:58:37.119Z,4.27
2018-07-09T11:01:04.964Z,3.83
2018-07-09T11:03:32.676Z,4.40
2018-07-09T11:06:00.630Z,4.00
2018-07-09T11:08:28.357Z,4.17
2018-07-09T11:10:56.165Z,3.27
2018-07-09T11:13:24.021Z,3.67
2018-07-09T11:15:52.435Z,3.77
2018-07-09T11:18:20.301Z,4.40
2018-07-09T11:20:48.069Z,4.10
2018-07-09T11:23:15.818Z,4.57
2018-07-09T11:25:43.646Z,3.87
2018-07-09T11:28:11.380Z,4.60
2018-07-09T11:30:45.209Z,4.20
2018-07-09T11:33:13.025Z,3.97
2018-07-09T11:35:40.748Z,3.93
2018-07-09T11:38:08.603Z,4.00
2018-07-09T11:40:36.321Z,3.80
2018-07-09T11:43:04.207Z,3.60
2018-07-09T11:45:31.762Z,3.50
2018-07-09T11:47:59.492Z,3.93
2018-07-09T11:50:27.151Z,4.27
2018-07-09T11:52:55.055Z,3.50
2018-07-09T11:55:22.759Z,4.00
2018-07-09T11:57:50.504Z,4.07
2018-07-09T12:00:18.304Z,3.97
2018-07-09T12:02:46.051Z,4.50
2018-07-09T12:05:13.735Z,4.10
2018-07-09T12:07:41.576Z,3.77
2018-07-09T12:10:09.399Z,4.40
2018-07-09T12:12:37.516Z,4.50
2018-07-09T12:15:05.485Z,4.33
2018-07-09T12:17:40.413Z,4.40
2018-07-09T12:20:08.113Z,4.70
2018-07-09T12:22:35.839Z,4.40
2018-07-09T12:25:04.397Z,4.50
2018-07-09T12:27:32.176Z,4.70
2018-07-09T12:29:59.904Z,3.90
2018-07-09T12:32:28.139Z,3.80
2018-07-09T12:34:55.884Z,3.80
2018-07-09T12:37:23.604Z,4.17
2018-07-09T12:39:51.441Z,4.43
2018-07-09T12:42:19.191Z,4.50
2018-07-09T12:44:46.957Z,4.50
2018-07-09T12:47:14.740Z,4.00
2018-07-09T12:49:42.607Z,4.60
2018-07-09T12:52:10.356Z,5.07
2018-07-09T12:54:38.047Z,4.33
2018-07-09T12:57:05.908Z,4.17
2018-07-09T12:59:33.737Z,3.87
2018-07-09T13:02:01.523Z,4.30
2018-07-09T13:04:29.240Z,4.40
2018-07-09T13:06:57.065Z,4.40
2018-07-09T13:09:24.869Z,4.10
2018-07-09T13:11:52.670Z,3.77
2018-07-09T13:14:20.519Z,4.57
2018-07-09T13:16:48.961Z,4.37
2018-07-09T13:19:16.681Z,4.43
2018-07-09T13:21:44.940Z,4.20
2018-07-09T13:24:12.852Z,4.33
2018-07-09T13:26:40.569Z,4.70
2018-07-09T13:29:08.365Z,4.17
2018-07-09T13:31:36.304Z,4.50
2018-07-09T13:34:04.046Z,4.50
2018-07-09T13:36:31.846Z,5.30
2018-07-09T13:38:59.619Z,4.83
2018-07-09T13:41:27.757Z,4.83
2018-07-09T13:43:55.708Z,4.47
2018-07-09T13:46:23.755Z,5.40
2018-07-09T13:48:51.546Z,4.73
2018-07-09T13:51:19.320Z,5.13
2018-07-09T13:53:47.644Z,5.20
2018-07-09T13:56:15.360Z,5.57
2018-07-09T13:58:43.069Z,5.60
2018-07-09T14:01:11.100Z,5.60
2018-07-09T14:03:38.815Z,5.70
2018-07-09T14:06:06.653Z,5.67
2018-07-09T14:08:34.480Z,5.50
2018-07-09T14:11:02.462Z,5.90
2018-07-09T14:13:30.325Z,5.70
2018-07-09T14:15:58.706Z,5.50
2018-07-09T14:18:26.460Z,5.50
2018-07-09T14:20:54.269Z,5.37
2018-07-09T14:23:23.855Z,5.30
2018-07-09T14:25:51.801Z,5.17
2018-07-09T14:28:19.609Z,5.10
2018-07-09T14:30:47.336Z,4.80
2018-07-09T14:33:15.255Z,4.80
2018-07-09T14:35:43.490Z,4.80
2018-07-09T14:38:11.287Z,4.70
2018-07-09T14:40:39.062Z,4.63
2018-07-09T14:43:06.888Z,5.13
2018-07-09T14:45:34.815Z,4.90
2018-07-09T14:48:02.975Z,4.73
2018-07-09T14:50:30.686Z,4.93
2018-07-09T14:53:00.611Z,4.97
2018-07-09T14:55:28.330Z,4.70
2018-07-09T14:57:56.100Z,5.07
2018-07-09T15:00:24.076Z,5.03
2018-07-09T15:02:52.068Z,4.53
2018-07-09T15:05:19.828Z,3.93
2018-07-09T15:07:47.731Z,4.10
2018-07-09T15:10:15.661Z,4.03
2018-07-09T15:12:43.450Z,4.00
2018-07-09T15:15:11.260Z,3.80
2018-07-09T15:17:39.090Z,4.37
2018-07-09T15:20:07.006Z,4.70
2018-07-09T15:22:34.804Z,5.20
2018-07-09T15:25:02.973Z,4.93
2018-07-09T15:27:30.709Z,4.90
2018-07-09T15:30:01.540Z,4.87
2018-07-09T15:32:30.794Z,4.30
2018-07-09T15:34:58.768Z,5.00
2018-07-09T15:37:26.917Z,4.33
2018-07-09T15:39:54.844Z,4.57
2018-07-09T15:42:23.171Z,4.50
2018-07-09T15:44:50.944Z,4.80
2018-07-09T15:47:18.729Z,4.60
2018-07-09T15:49:46.576Z,4.87
2018-07-09T15:52:14.555Z,3.93
2018-07-09T15:54:42.405Z,4.40
2018-07-09T15:57:10.253Z,4.40
2018-07-09T15:59:38.430Z,5.10
2018-07-09T16:02:06.267Z,4.03
2018-07-09T16:04:34.105Z,4.77
2018-07-09T16:07:01.851Z,4.43
2018-07-09T16:18:11.246Z,4.43
2018-07-09T16:20:38.977Z,4.20
2018-07-09T16:23:06.776Z,4.00
2018-07-09T16:28:28.118Z,4.50
2018-07-09T16:30:56.083Z,4.30
2018-07-09T16:33:23.893Z,4.30
2018-07-09T16:35:51.676Z,4.07
2018-07-09T16:38:19.837Z,3.70
2018-07-09T16:40:48.736Z,3.43
2018-07-09T16:43:16.506Z,4.43
2018-07-09T16:45:44.429Z,4.10
2018-07-09T16:48:12.175Z,4.30
2018-07-09T16:50:45.309Z,3.63
2018-07-09T16:53:13.164Z,3.93
2018-07-09T16:55:41.038Z,3.97
2018-07-09T16:58:27.083Z,4.53
2018-07-09T17:00:54.950Z,3.27
2018-07-09T17:03:24.111Z,3.80
2018-07-09T17:05:52.000Z,3.80
2018-07-09T17:08:19.750Z,3.60
2018-07-09T17:12:15.313Z,3.33
2018-07-09T17:14:43.145Z,3.37
2018-07-09T17:17:11.085Z,3.43
2018-07-09T17:19:38.997Z,4.03
2018-07-09T17:22:06.798Z,3.60
2018-07-09T17:24:34.579Z,3.20
2018-07-09T17:27:02.576Z,3.20
2018-07-09T17:29:30.261Z,3.00
2018-07-09T17:31:58.662Z,3.20
2018-07-09T17:34:26.564Z,2.80
2018-07-09T17:36:54.401Z,3.30
2018-07-09T17:39:22.196Z,3.17
2018-07-09T17:41:50.105Z,3.00
2018-07-09T17:44:17.849Z,3.73
2018-07-09T17:46:45.708Z,3.17
2018-07-09T17:49:14.504Z,3.20
2018-07-09T17:51:42.404Z,3.80
2018-07-09T17:54:10.432Z,3.30
2018-07-09T17:56:44.546Z,3.33
2018-07-09T17:59:12.335Z,3.13
2018-07-09T18:01:40.545Z,3.17
2018-07-09T18:04:08.330Z,3.30
2018-07-09T18:06:35.968Z,2.80
2018-07-09T18:09:04.563Z,3.10
2018-07-09T18:11:33.441Z,2.97
2018-07-09T18:16:54.508Z,3.10
2018-07-09T18:19:22.733Z,2.80
2018-07-09T18:21:50.953Z,2.83
2018-07-09T18:24:18.743Z,3.13
2018-07-09T18:26:46.667Z,2.83
2018-07-09T18:29:14.573Z,2.93
2018-07-09T18:31:42.536Z,2.87
2018-07-09T18:34:12.420Z,2.70
2018-07-09T18:39:33.298Z,3.27
2018-07-09T18:42:00.976Z,2.70
2018-07-09T18:44:29.049Z,2.70
2018-07-09T18:46:57.288Z,2.80
2018-07-09T18:49:25.240Z,2.77
2018-07-09T18:51:54.537Z,2.50
2018-07-09T18:54:23.727Z,2.97
2018-07-09T18:56:51.595Z,2.80
2018-07-09T18:59:19.537Z,3.17
2018-07-09T19:01:48.211Z,2.63
2018-07-09T19:04:16.080Z,2.47
2018-07-09T19:06:52.057Z,3.20
2018-07-09T19:09:20.469Z,3.67
2018-07-09T19:11:48.423Z,3.00
2018-07-09T19:14:18.740Z,3.10
2018-07-09T19:16:58.000Z,3.20
2018-07-09T19:19:37.063Z,2.77
2018-07-09T19:22:05.010Z,3.10
2018-07-09T19:24:32.219Z,2.90
2018-07-09T19:27:00.099Z,2.57
2018-07-09T19:29:26.763Z,2.83
2018-07-09T19:31:53.427Z,2.77
2018-07-09T19:34:20.168Z,3.00
2018-07-09T19:36:46.882Z,2.57
2018-07-09T19:39:13.349Z,2.60
2018-07-09T19:41:40.142Z,2.57
2018-07-09T19:44:06.764Z,2.40
2018-07-09T19:46:33.486Z,2.80
2018-07-09T19:49:00.075Z,3.20
2018-07-09T19:54:20.261Z,2.70
2018-07-09T19:56:47.018Z,3.00
2018-07-09T19:59:14.566Z,2.70
2018-07-09T20:01:41.367Z,3.20
2018-07-09T20:04:07.980Z,3.30
2018-07-09T20:06:34.751Z,3.37
2018-07-09T20:09:06.936Z,3.30
2018-07-09T20:11:54.034Z,3.13
2018-07-09T20:14:26.311Z,3.37
2018-07-09T20:16:58.575Z,3.50
2018-07-09T20:19:25.223Z,3.47
2018-07-09T20:21:55.950Z,3.57
2018-07-09T20:27:15.708Z,2.70
2018-07-09T20:29:42.747Z,3.50
2018-07-09T20:32:09.506Z,3.10
2018-07-09T20:34:36.387Z,3.70
2018-07-09T20:37:03.872Z,3.70
2018-07-09T20:39:30.605Z,3.77
2018-07-09T20:44:50.544Z,3.63
2018-07-09T20:47:17.565Z,3.10
2018-07-09T20:49:44.221Z,3.50
2018-07-09T20:52:10.796Z,2.93
2018-07-09T20:54:37.499Z,3.20
2018-07-09T20:57:04.325Z,3.43
2018-07-09T20:59:31.021Z,3.30
2018-07-09T21:01:57.628Z,2.90
2018-07-09T21:04:27.349Z,3.23
2018-07-09T21:06:55.325Z,3.80
2018-07-09T21:09:22.125Z,3.90
2018-07-09T21:11:48.684Z,3.57
2018-07-09T21:14:15.561Z,6.13
2018-07-09T21:16:42.184Z,5.30
2018-07-09T21:19:09.554Z,6.13
2018-07-09T21:21:36.292Z,4.33
2018-07-09T21:24:02.911Z,3.10
2018-07-09T21:26:29.488Z,3.00
2018-07-09T21:28:56.116Z,3.63
2018-07-09T21:31:22.690Z,3.10
2018-07-09T21:33:49.258Z,3.27
2018-07-09T21:36:15.948Z,3.57
2018-07-09T21:38:42.854Z,4.00
2018-07-09T21:41:10.361Z,3.50
2018-07-09T21:43:37.050Z,3.10
2018-07-09T21:46:03.642Z,3.03
2018-07-09T21:48:30.617Z,3.50
2018-07-09T21:50:57.236Z,3.70
2018-07-09T21:53:24.855Z,3.33
2018-07-09T21:55:51.821Z,3.37
2018-07-09T21:58:18.398Z,3.80
2018-07-09T22:00:45.043Z,3.67
2018-07-09T22:03:11.642Z,9.50
2018-07-09T22:05:38.214Z,5.33
2018-07-09T22:08:04.874Z,4.90
2018-07-09T22:10:31.494Z,3.67
2018-07-09T22:12:58.059Z,6.20
2018-07-09T22:15:24.595Z,4.13
2018-07-09T22:17:51.167Z,3.80
2018-07-09T22:20:17.742Z,3.70
2018-07-09T22:22:44.306Z,4.57
2018-07-09T22:25:10.880Z,3.80
2018-07-09T22:27:37.498Z,3.87
2018-07-09T22:30:04.046Z,4.50
2018-07-09T22:32:31.806Z,5.10
2018-07-09T22:34:59.545Z,5.30
2018-07-09T22:37:27.356Z,4.70
2018-07-09T22:39:55.167Z,5.03
2018-07-09T22:42:22.948Z,4.40
2018-07-09T22:47:43.431Z,4.07
2018-07-09T22:50:11.450Z,4.20
2018-07-09T22:52:39.340Z,4.10
2018-07-09T22:55:18.683Z,4.10
2018-07-09T22:57:46.765Z,3.70
2018-07-09T23:00:16.331Z,3.40
2018-07-09T23:02:45.562Z,4.03
2018-07-09T23:05:13.471Z,4.30
2018-07-09T23:07:41.281Z,4.03
2018-07-09T23:11:26.065Z,4.20
2018-07-09T23:16:13.865Z,3.90
2018-07-09T23:18:53.794Z,4.20
2018-07-09T23:22:27.283Z,4.10
2018-07-09T23:24:53.834Z,4.07
2018-07-09T23:27:20.429Z,4.90
2018-07-09T23:29:46.993Z,4.07
2018-07-09T23:32:13.597Z,4.00
2018-07-09T23:34:40.349Z,4.07
2018-07-09T23:37:06.903Z,4.80
2018-07-09T23:39:33.486Z,3.80
2018-07-09T23:42:00.143Z,4.60
2018-07-09T23:44:26.826Z,4.00
2018-07-09T23:46:53.408Z,4.23
2018-07-09T23:49:19.947Z,4.23
2018-07-09T23:51:46.591Z,4.87
2018-07-09T23:54:13.149Z,3.63
2018-07-09T23:59:23.602Z,4.40
